createdAt,value
2023-01-24T00:03:00.128Z,4.10
2023-01-24T00:06:02.917Z,3.10
2023-01-24T00:09:05.873Z,3.90
2023-01-24T00:12:08.497Z,5.03
2023-01-24T00:15:11.779Z,4.32
2023-01-24T00:18:14.394Z,4.93
2023-01-24T00:21:20.347Z,2.80
2023-01-24T00:24:23.035Z,3.72
2023-01-24T00:27:25.686Z,4.45
2023-01-24T00:30:28.546Z,4.37
2023-01-24T00:33:33.564Z,5.13
2023-01-24T00:36:36.095Z,4.93
2023-01-24T00:39:39.132Z,3.43
2023-01-24T00:42:42.100Z,4.75
2023-01-24T00:45:46.387Z,4.95
2023-01-24T00:48:48.811Z,4.90
2023-01-24T00:51:51.792Z,5.22
2023-01-24T00:54:54.676Z,4.22
2023-01-24T00:57:57.823Z,5.78
2023-01-24T01:01:03.358Z,5.70
2023-01-24T01:04:06.504Z,3.50
2023-01-24T01:07:09.184Z,3.05
2023-01-24T01:10:12.943Z,5.20
2023-01-24T01:13:15.525Z,5.32
2023-01-24T01:16:20.318Z,6.13
2023-01-24T01:19:22.999Z,5.45
2023-01-24T01:22:26.116Z,4.85
2023-01-24T01:25:28.976Z,5.50
2023-01-24T01:28:32.147Z,4.80
2023-01-24T01:31:36.292Z,4.20
2023-01-24T01:34:39.027Z,5.53
2023-01-24T01:37:41.766Z,4.72
2023-01-24T01:40:45.673Z,5.40
2023-01-24T01:44:07.059Z,4.70
2023-01-24T01:47:24.475Z,4.78
2023-01-24T01:50:38.061Z,5.38
2023-01-24T01:54:03.762Z,5.22
2023-01-24T01:57:10.904Z,4.57
2023-01-24T02:00:18.462Z,4.75
2023-01-24T02:03:41.577Z,5.33
2023-01-24T02:06:57.608Z,4.40
2023-01-24T02:10:01.173Z,5.05
2023-01-24T02:13:04.099Z,4.73
2023-01-24T02:16:07.894Z,5.07
2023-01-24T02:19:21.114Z,5.45
2023-01-24T02:25:43.195Z,4.97
2023-01-24T02:28:54.988Z,5.32
2023-01-24T02:32:03.496Z,5.05
2023-01-24T02:35:06.625Z,4.57
2023-01-24T02:38:26.366Z,4.90
2023-01-24T02:41:44.001Z,4.53
2023-01-24T02:45:17.914Z,4.63
2023-01-24T02:48:20.736Z,5.20
2023-01-24T02:51:42.126Z,4.97
2023-01-24T02:54:44.563Z,4.68
2023-01-24T02:58:06.394Z,4.68
2023-01-24T03:01:11.328Z,4.55
2023-01-24T03:04:14.513Z,5.30
2023-01-24T03:07:17.384Z,4.37
2023-01-24T03:10:27.666Z,5.18
2023-01-24T03:13:49.548Z,4.78
2023-01-24T03:17:10.690Z,4.23
2023-01-24T03:20:32.725Z,4.40
2023-01-24T03:23:54.261Z,4.32
2023-01-24T03:27:15.352Z,4.05
2023-01-24T03:30:37.188Z,4.78
2023-01-24T03:33:58.768Z,4.47
2023-01-24T03:37:02.582Z,4.60
2023-01-24T03:40:13.603Z,4.70
2023-01-24T03:43:16.752Z,3.75
2023-01-24T03:46:19.777Z,4.78
2023-01-24T03:49:50.814Z,4.60
2023-01-24T03:52:54.055Z,5.30
2023-01-24T03:56:02.523Z,4.82
2023-01-24T03:59:11.154Z,5.05
2023-01-24T04:02:16.304Z,4.70
2023-01-24T04:05:19.029Z,4.68
2023-01-24T04:08:22.413Z,4.68
2023-01-24T04:11:26.049Z,3.83
2023-01-24T04:14:34.473Z,4.35
2023-01-24T04:17:45.984Z,4.28
2023-01-24T04:20:52.026Z,4.37
2023-01-24T04:23:54.975Z,5.30
2023-01-24T04:26:58.655Z,4.28
2023-01-24T04:30:08.420Z,3.67
2023-01-24T04:33:13.195Z,4.60
2023-01-24T04:36:16.508Z,4.57
2023-01-24T04:39:23.185Z,4.32
2023-01-24T04:42:52.164Z,4.10
2023-01-24T04:46:00.057Z,2.95
2023-01-24T04:49:15.828Z,3.90
2023-01-24T04:52:22.889Z,5.03
2023-01-24T04:55:33.737Z,4.40
2023-01-24T04:58:36.828Z,4.03
2023-01-24T05:01:40.709Z,4.47
2023-01-24T05:04:52.544Z,4.05
2023-01-24T05:07:55.903Z,4.13
2023-01-24T05:11:05.269Z,4.10
2023-01-24T05:14:12.384Z,4.00
2023-01-24T05:17:15.365Z,4.80
2023-01-24T05:20:18.774Z,4.18
2023-01-24T05:23:21.867Z,3.70
2023-01-24T05:26:27.162Z,4.05
2023-01-24T05:29:30.193Z,3.75
2023-01-24T05:32:35.807Z,4.53
2023-01-24T05:35:41.934Z,4.97
2023-01-24T05:38:45.691Z,2.88
2023-01-24T05:41:48.597Z,2.83
2023-01-24T05:44:53.054Z,2.77
2023-01-24T05:47:56.564Z,3.17
2023-01-24T05:51:05.714Z,3.60
2023-01-24T05:54:08.653Z,4.10
2023-01-24T05:57:29.748Z,3.22
2023-01-24T06:00:47.418Z,3.97
2023-01-24T06:04:06.872Z,3.33
2023-01-24T06:07:10.521Z,4.10
2023-01-24T06:10:14.795Z,5.65
2023-01-24T06:13:27.994Z,6.13
2023-01-24T06:16:30.894Z,5.77
2023-01-24T06:19:33.950Z,5.60
2023-01-24T06:22:51.967Z,5.00
2023-01-24T06:25:56.864Z,5.70
2023-01-24T06:28:59.645Z,5.97
2023-01-24T06:32:27.541Z,6.60
2023-01-24T06:35:37.460Z,5.57
2023-01-24T06:38:40.908Z,4.13
2023-01-24T06:41:44.206Z,4.43
2023-01-24T06:44:47.524Z,3.90
2023-01-24T06:47:50.103Z,5.23
2023-01-24T06:50:54.457Z,4.30
2023-01-24T06:53:57.165Z,3.50
2023-01-24T06:56:59.688Z,4.70
2023-01-24T07:00:04.618Z,4.72
2023-01-24T07:03:08.911Z,5.43
2023-01-24T07:06:11.628Z,5.15
2023-01-24T07:09:14.460Z,4.75
2023-01-24T07:12:17.243Z,4.45
2023-01-24T07:15:19.835Z,3.92
2023-01-24T07:18:23.012Z,4.03
2023-01-24T07:21:25.787Z,4.50
2023-01-24T07:24:30.605Z,4.10
2023-01-24T07:27:33.361Z,4.63
2023-01-24T07:30:35.953Z,4.78
2023-01-24T07:33:38.474Z,4.32
2023-01-24T07:36:43.371Z,4.40
2023-01-24T07:39:45.965Z,3.75
2023-01-24T07:42:48.524Z,3.78
2023-01-24T07:45:52.887Z,3.05
2023-01-24T07:48:55.781Z,4.27
2023-01-24T07:52:01.899Z,3.00
2023-01-24T07:55:05.554Z,2.53
2023-01-24T07:58:08.041Z,4.57
2023-01-24T08:01:16.263Z,4.72
2023-01-24T08:04:19.235Z,4.05
2023-01-24T08:07:22.910Z,3.97
2023-01-24T08:10:25.789Z,4.43
2023-01-24T08:13:28.818Z,5.05
2023-01-24T08:16:31.415Z,5.75
2023-01-24T08:19:54.851Z,5.00
2023-01-24T08:22:59.209Z,5.30
2023-01-24T08:26:03.739Z,5.30
2023-01-24T08:29:06.216Z,5.23
2023-01-24T08:32:08.676Z,5.47
2023-01-24T08:35:11.370Z,5.53
2023-01-24T08:38:14.245Z,5.70
2023-01-24T08:41:16.709Z,6.18
2023-01-24T08:44:19.256Z,5.93
2023-01-24T08:47:22.380Z,6.05
2023-01-24T08:50:25.336Z,5.10
2023-01-24T08:53:29.549Z,5.07
2023-01-24T08:56:33.802Z,4.28
2023-01-24T08:59:36.753Z,3.67
2023-01-24T09:02:39.850Z,5.13
2023-01-24T09:05:42.850Z,4.72
2023-01-24T09:08:45.544Z,2.30
2023-01-24T09:11:49.577Z,3.72
2023-01-24T09:14:52.407Z,4.82
2023-01-24T09:17:55.198Z,4.57
2023-01-24T09:21:02.580Z,4.17
2023-01-24T09:24:05.415Z,4.20
2023-01-24T09:27:08.103Z,4.65
2023-01-24T09:30:11.587Z,4.20
2023-01-24T09:33:16.654Z,4.57
2023-01-24T09:36:19.187Z,3.80
2023-01-24T09:39:23.045Z,4.18
2023-01-24T09:42:42.590Z,4.45
2023-01-24T09:46:05.921Z,4.20
2023-01-24T09:49:09.341Z,5.18
2023-01-24T09:52:21.069Z,4.37
2023-01-24T09:55:32.516Z,5.57
2023-01-24T09:58:41.128Z,4.90
2023-01-24T10:01:44.056Z,4.50
2023-01-24T10:04:48.576Z,4.88
2023-01-24T10:08:14.278Z,4.30
2023-01-24T10:11:31.249Z,4.43
2023-01-24T10:15:18.548Z,3.72
2023-01-24T10:19:04.894Z,4.13
2023-01-24T10:22:33.150Z,10.68
2023-01-24T10:26:11.081Z,6.00
2023-01-24T10:29:21.520Z,4.47
2023-01-24T10:32:32.608Z,4.13
2023-01-24T10:35:58.331Z,4.00
2023-01-24T10:39:00.818Z,3.83
2023-01-24T10:42:15.612Z,5.45
2023-01-24T10:45:36.923Z,4.32
2023-01-24T10:48:54.792Z,4.25
2023-01-24T10:52:20.147Z,3.83
2023-01-24T10:55:25.433Z,3.70
2023-01-24T10:58:39.445Z,2.80
2023-01-24T11:01:50.644Z,2.90
2023-01-24T11:05:01.436Z,2.67
2023-01-24T11:08:05.610Z,3.43
2023-01-24T11:11:41.161Z,4.25
2023-01-24T11:14:49.841Z,2.58
2023-01-24T11:17:58.757Z,4.13
2023-01-24T11:21:13.796Z,3.53
2023-01-24T11:24:16.520Z,3.78
2023-01-24T11:27:21.732Z,3.72
2023-01-24T11:30:25.631Z,2.87
2023-01-24T11:33:37.892Z,3.10
2023-01-24T11:36:56.205Z,3.33
2023-01-24T11:40:17.421Z,2.90
2023-01-24T11:43:41.165Z,3.40
2023-01-24T11:46:57.990Z,3.28
2023-01-24T11:50:53.886Z,4.20
2023-01-24T11:54:29.091Z,3.95
2023-01-24T11:57:43.879Z,3.72
2023-01-24T12:00:53.868Z,3.80
2023-01-24T12:04:02.698Z,4.00
2023-01-24T12:07:46.825Z,4.13
2023-01-24T12:11:11.941Z,3.22
2023-01-24T12:14:23.872Z,4.13
2023-01-24T12:17:37.472Z,2.72
2023-01-24T12:21:06.500Z,3.42
2023-01-24T12:24:22.720Z,3.20
2023-01-24T12:27:27.714Z,2.65
2023-01-24T12:30:37.903Z,3.58
2023-01-24T12:34:18.726Z,4.55
2023-01-24T12:37:56.669Z,3.77
2023-01-24T12:41:32.584Z,6.10
2023-01-24T12:44:43.947Z,3.95
2023-01-24T12:47:55.623Z,4.00
2023-01-24T12:51:01.431Z,3.65
2023-01-24T12:54:23.121Z,4.18
2023-01-24T12:57:38.424Z,4.30
2023-01-24T13:00:55.168Z,3.78
2023-01-24T13:04:18.768Z,3.80
2023-01-24T13:07:50.561Z,4.47
2023-01-24T13:11:21.548Z,3.67
2023-01-24T13:14:27.912Z,4.00
2023-01-24T13:17:45.732Z,3.63
2023-01-24T13:21:15.554Z,3.33
2023-01-24T13:24:33.298Z,2.75
2023-01-24T13:28:00.396Z,3.25
2023-01-24T13:31:28.541Z,3.20
2023-01-24T13:34:38.495Z,3.30
2023-01-24T13:37:41.603Z,2.50
2023-01-24T13:40:59.634Z,2.60
2023-01-24T13:44:02.741Z,3.57
2023-01-24T13:47:14.012Z,3.38
2023-01-24T13:50:19.464Z,2.40
2023-01-24T13:54:00.305Z,2.30
2023-01-24T13:57:30.911Z,3.00
2023-01-24T14:00:34.792Z,2.55
2023-01-24T14:03:38.661Z,3.22
2023-01-24T14:06:44.509Z,3.30
2023-01-24T14:09:48.157Z,2.95
2023-01-24T14:12:55.411Z,2.63
2023-01-24T14:15:58.109Z,2.80
2023-01-24T14:19:08.549Z,3.60
2023-01-24T14:22:20.650Z,3.30
2023-01-24T14:25:48.455Z,3.70
2023-01-24T14:28:56.456Z,1.42
2023-01-24T14:32:01.515Z,3.38
2023-01-24T14:35:21.555Z,2.75
2023-01-24T14:38:24.126Z,2.13
2023-01-24T14:41:26.912Z,2.92
2023-01-24T14:44:36.471Z,3.03
2023-01-24T14:47:39.809Z,3.20
2023-01-24T14:50:42.546Z,2.80
2023-01-24T14:53:50.909Z,3.28
2023-01-24T14:56:53.594Z,4.10
2023-01-24T15:00:13.130Z,3.90
2023-01-24T15:03:19.894Z,5.57
2023-01-24T15:06:23.271Z,5.95
2023-01-24T15:09:26.555Z,6.82
2023-01-24T15:12:36.729Z,3.97
2023-01-24T15:15:40.367Z,3.40
2023-01-24T15:18:46.725Z,2.40
2023-01-24T15:21:51.498Z,5.32
2023-01-24T15:24:59.196Z,5.55
2023-01-24T15:28:27.315Z,5.23
2023-01-24T15:31:31.314Z,3.83
2023-01-24T15:34:33.939Z,3.70
2023-01-24T15:37:36.623Z,3.20
2023-01-24T15:41:02.320Z,4.15
2023-01-24T15:44:08.238Z,3.85
2023-01-24T15:47:39.306Z,4.82
2023-01-24T15:51:12.365Z,3.27
2023-01-24T15:54:15.557Z,2.28
2023-01-24T15:57:24.655Z,3.17
2023-01-24T16:00:27.708Z,2.60
2023-01-24T16:03:30.847Z,3.40
2023-01-24T16:06:33.418Z,2.55
2023-01-24T16:09:36.322Z,3.13
2023-01-24T16:12:39.801Z,2.42
2023-01-24T16:15:42.329Z,2.85
2023-01-24T16:18:45.038Z,3.38
2023-01-24T16:21:47.887Z,3.40
2023-01-24T16:24:50.450Z,3.28
2023-01-24T16:27:53.693Z,4.07
2023-01-24T16:31:03.262Z,4.73
2023-01-24T16:34:05.792Z,5.47
2023-01-24T16:37:09.896Z,3.75
2023-01-24T16:40:15.862Z,4.50
2023-01-24T16:43:21.571Z,4.43
2023-01-24T16:46:24.295Z,2.50
2023-01-24T16:49:28.453Z,2.03
2023-01-24T16:52:32.554Z,3.47
2023-01-24T16:55:38.861Z,3.65
2023-01-24T16:58:41.447Z,4.78
2023-01-24T17:01:44.470Z,5.60
2023-01-24T17:04:49.980Z,5.05
2023-01-24T17:07:52.665Z,3.53
2023-01-24T17:11:06.676Z,4.03
2023-01-24T17:14:09.504Z,6.15
2023-01-24T17:17:12.144Z,6.30
2023-01-24T17:20:15.526Z,5.20
2023-01-24T17:23:17.961Z,5.97
2023-01-24T17:26:20.670Z,4.93
2023-01-24T17:29:26.818Z,6.32
2023-01-24T17:32:31.509Z,4.57
2023-01-24T17:35:34.154Z,5.88
2023-01-24T17:38:37.217Z,5.45
2023-01-24T17:41:40.185Z,6.70
2023-01-24T17:44:43.105Z,6.18
2023-01-24T17:47:45.555Z,7.10
2023-01-24T17:50:49.209Z,6.15
2023-01-24T17:53:51.919Z,5.90
2023-01-24T17:56:54.795Z,7.50
2023-01-24T17:59:57.358Z,7.72
2023-01-24T18:03:00.248Z,5.50
2023-01-24T18:06:05.282Z,6.07
2023-01-24T18:09:08.411Z,4.57
2023-01-24T18:12:11.136Z,4.05
2023-01-24T18:15:14.278Z,3.80
2023-01-24T18:18:17.572Z,4.65
2023-01-24T18:21:23.530Z,4.07
2023-01-24T18:24:26.010Z,4.43
2023-01-24T18:27:29.390Z,4.18
2023-01-24T18:30:32.051Z,3.97
2023-01-24T18:33:35.900Z,4.77
2023-01-24T18:36:39.205Z,4.95
2023-01-24T18:39:42.012Z,1.92
2023-01-24T18:42:45.400Z,2.85
2023-01-24T18:45:48.402Z,2.92
2023-01-24T18:48:52.227Z,2.70
2023-01-24T18:51:54.871Z,4.35
2023-01-24T18:54:57.599Z,3.47
2023-01-24T18:58:00.500Z,3.38
2023-01-24T19:01:20.158Z,4.00
2023-01-24T19:04:23.478Z,5.07
2023-01-24T19:07:26.444Z,4.38
2023-01-24T19:10:31.102Z,4.07
2023-01-24T19:13:34.917Z,5.05
2023-01-24T19:16:40.932Z,3.85
2023-01-24T19:19:44.164Z,3.95
2023-01-24T19:22:47.421Z,5.55
2023-01-24T19:25:50.148Z,5.30
2023-01-24T19:28:55.852Z,5.18
2023-01-24T19:31:58.926Z,6.03
2023-01-24T19:35:01.910Z,8.50
2023-01-24T19:38:04.719Z,7.03
2023-01-24T19:41:10.584Z,7.25
2023-01-24T19:44:22.324Z,7.60
2023-01-24T19:47:25.719Z,7.43
2023-01-24T19:50:31.038Z,7.38
2023-01-24T19:53:34.785Z,6.45
2023-01-24T19:56:37.853Z,8.03
2023-01-24T19:59:41.379Z,9.00
2023-01-24T20:02:47.237Z,7.40
2023-01-24T20:05:50.294Z,6.93
2023-01-24T20:08:57.001Z,6.93
2023-01-24T20:11:59.870Z,7.55
2023-01-24T20:15:02.661Z,7.72
2023-01-24T20:18:05.810Z,7.50
2023-01-24T20:21:12.997Z,7.20
2023-01-24T20:24:16.277Z,8.82
2023-01-24T20:27:18.899Z,8.67
2023-01-24T20:30:22.724Z,14.77
2023-01-24T20:33:25.927Z,8.73
2023-01-24T20:36:28.586Z,7.67
2023-01-24T20:39:31.370Z,9.20
2023-01-24T20:42:35.665Z,9.43
2023-01-24T20:45:38.818Z,6.90
2023-01-24T20:48:41.661Z,7.43
2023-01-24T20:51:44.496Z,6.25
2023-01-24T20:54:47.663Z,6.80
2023-01-24T20:57:50.263Z,6.40
2023-01-24T21:00:54.244Z,5.32
2023-01-24T21:04:09.104Z,5.13
2023-01-24T21:07:12.062Z,6.50
2023-01-24T21:10:15.889Z,5.20
2023-01-24T21:13:19.629Z,7.38
2023-01-24T21:16:23.540Z,5.90
2023-01-24T21:19:27.264Z,6.72
2023-01-24T21:22:29.900Z,5.85
2023-01-24T21:25:35.001Z,6.28
2023-01-24T21:28:38.312Z,7.07
2023-01-24T21:31:41.390Z,7.00
2023-01-24T21:34:43.826Z,5.40
2023-01-24T21:37:46.921Z,8.50
2023-01-24T21:41:09.902Z,8.73
2023-01-24T21:44:12.480Z,7.82
2023-01-24T21:47:17.423Z,7.07
2023-01-24T21:50:20.448Z,6.43
2023-01-24T21:53:43.381Z,6.88
2023-01-24T21:57:28.172Z,6.63
2023-01-24T22:00:32.582Z,4.60
2023-01-24T22:03:35.334Z,3.55
2023-01-24T22:06:38.011Z,4.97
2023-01-24T22:09:41.415Z,4.37
2023-01-24T22:12:44.006Z,6.20
2023-01-24T22:15:46.686Z,4.95
2023-01-24T22:18:49.820Z,5.53
2023-01-24T22:21:52.735Z,5.78
2023-01-24T22:25:27.073Z,6.47
2023-01-24T22:28:32.974Z,6.00
2023-01-24T22:31:35.733Z,5.13
2023-01-24T22:34:39.169Z,4.55
2023-01-24T22:37:43.861Z,5.05
2023-01-24T22:40:47.029Z,3.47
2023-01-24T22:43:49.989Z,3.83
2023-01-24T22:46:52.745Z,4.38
2023-01-24T22:49:55.368Z,3.60
2023-01-24T22:52:58.157Z,2.53
2023-01-24T22:56:03.617Z,4.28
2023-01-24T22:59:06.669Z,4.80
2023-01-24T23:02:09.668Z,4.03
2023-01-24T23:05:13.057Z,5.00
2023-01-24T23:08:16.899Z,3.92
2023-01-24T23:11:21.127Z,4.87
2023-01-24T23:14:42.331Z,4.40
2023-01-24T23:17:47.839Z,5.55
2023-01-24T23:21:12.969Z,4.63
2023-01-24T23:24:15.947Z,5.93
2023-01-24T23:27:21.069Z,6.75
2023-01-24T23:30:37.862Z,5.97
2023-01-24T23:33:44.303Z,6.00
2023-01-24T23:36:49.825Z,5.00
2023-01-24T23:39:52.789Z,6.07
2023-01-24T23:42:55.784Z,6.60
2023-01-24T23:45:58.360Z,5.72
2023-01-24T23:49:01.167Z,6.43
2023-01-24T23:52:04.979Z,5.75
2023-01-24T23:55:08.634Z,5.10
2023-01-24T23:58:11.451Z,3.92
